sensor_id;sensor_type;location;lat;lon;timestamp;P1;durP1;ratioP1;P2;durP2;ratioP2
63320;SDS011;49449;48.800;9.534;2023-11-18T00:01:40;3.40;;;3.00;;
63320;SDS011;49449;48.800;9.534;2023-11-18T00:04:08;2.97;;;2.78;;
63320;SDS011;49449;48.800;9.534;2023-11-18T00:06:43;3.00;;;2.80;;
63320;SDS011;49449;48.800;9.534;2023-11-18T00:09:11;3.67;;;3.38;;
63320;SDS011;49449;48.800;9.534;2023-11-18T00:11:40;2.97;;;2.72;;
63320;SDS011;49449;48.800;9.534;2023-11-18T00:14:09;3.10;;;2.70;;
63320;SDS011;49449;48.800;9.534;2023-11-18T00:16:37;2.60;;;2.40;;
63320;SDS011;49449;48.800;9.534;2023-11-18T00:19:05;3.50;;;3.00;;
63320;SDS011;49449;48.800;9.534;2023-11-18T00:21:35;3.00;;;2.70;;
63320;SDS011;49449;48.800;9.534;2023-11-18T00:24:05;4.50;;;3.10;;
63320;SDS011;49449;48.800;9.534;2023-11-18T00:26:34;3.45;;;3.15;;
63320;SDS011;49449;48.800;9.534;2023-11-18T00:29:02;3.45;;;3.15;;
63320;SDS011;49449;48.800;9.534;2023-11-18T00:31:29;3.08;;;2.78;;
63320;SDS011;49449;48.800;9.534;2023-11-18T00:33:57;2.90;;;2.70;;
63320;SDS011;49449;48.800;9.534;2023-11-18T00:36:24;3.03;;;2.83;;
63320;SDS011;49449;48.800;9.534;2023-11-18T00:38:52;3.92;;;3.13;;
63320;SDS011;49449;48.800;9.534;2023-11-18T00:41:22;3.92;;;3.45;;
63320;SDS011;49449;48.800;9.534;2023-11-18T00:43:49;3.75;;;3.45;;
63320;SDS011;49449;48.800;9.534;2023-11-18T00:46:19;4.30;;;3.90;;
63320;SDS011;49449;48.800;9.534;2023-11-18T00:48:48;4.10;;;3.38;;
63320;SDS011;49449;48.800;9.534;2023-11-18T00:51:16;3.85;;;3.45;;
63320;SDS011;49449;48.800;9.534;2023-11-18T00:53:45;4.60;;;3.50;;
63320;SDS011;49449;48.800;9.534;2023-11-18T00:56:13;3.78;;;3.47;;
63320;SDS011;49449;48.800;9.534;2023-11-18T01:01:13;4.10;;;3.70;;
63320;SDS011;49449;48.800;9.534;2023-11-18T01:03:39;3.83;;;3.22;;
63320;SDS011;49449;48.800;9.534;2023-11-18T01:06:07;3.72;;;3.42;;
63320;SDS011;49449;48.800;9.534;2023-11-18T01:08:35;4.57;;;4.18;;
63320;SDS011;49449;48.800;9.534;2023-11-18T01:11:03;3.88;;;3.38;;
63320;SDS011;49449;48.800;9.534;2023-11-18T01:13:31;4.03;;;3.63;;
63320;SDS011;49449;48.800;9.534;2023-11-18T01:16:01;4.25;;;3.85;;
63320;SDS011;49449;48.800;9.534;2023-11-18T01:18:30;4.30;;;3.88;;
63320;SDS011;49449;48.800;9.534;2023-11-18T01:20:58;4.40;;;4.00;;
63320;SDS011;49449;48.800;9.534;2023-11-18T01:23:26;3.78;;;3.47;;
63320;SDS011;49449;48.800;9.534;2023-11-18T01:25:54;4.82;;;3.55;;
63320;SDS011;49449;48.800;9.534;2023-11-18T01:28:23;3.78;;;3.40;;
63320;SDS011;49449;48.800;9.534;2023-11-18T01:30:52;4.38;;;3.67;;
63320;SDS011;49449;48.800;9.534;2023-11-18T01:33:21;4.20;;;3.80;;
63320;SDS011;49449;48.800;9.534;2023-11-18T01:35:50;3.65;;;3.35;;
63320;SDS011;49449;48.800;9.534;2023-11-18T01:38:18;5.15;;;3.28;;
63320;SDS011;49449;48.800;9.534;2023-11-18T01:40:46;3.83;;;3.28;;
63320;SDS011;49449;48.800;9.534;2023-11-18T01:43:14;3.58;;;3.13;;
63320;SDS011;49449;48.800;9.534;2023-11-18T01:45:42;3.63;;;3.33;;
63320;SDS011;49449;48.800;9.534;2023-11-18T01:48:10;3.22;;;2.90;;
63320;SDS011;49449;48.800;9.534;2023-11-18T01:50:41;3.22;;;2.92;;
63320;SDS011;49449;48.800;9.534;2023-11-18T01:53:10;4.57;;;3.20;;
63320;SDS011;49449;48.800;9.534;2023-11-18T01:55:40;4.60;;;3.58;;
63320;SDS011;49449;48.800;9.534;2023-11-18T01:58:09;4.20;;;3.80;;
63320;SDS011;49449;48.800;9.534;2023-11-18T02:00:37;5.40;;;3.90;;
63320;SDS011;49449;48.800;9.534;2023-11-18T02:03:09;4.68;;;3.58;;
63320;SDS011;49449;48.800;9.534;2023-11-18T02:05:38;4.20;;;3.80;;
63320;SDS011;49449;48.800;9.534;2023-11-18T02:08:07;4.25;;;3.70;;
63320;SDS011;49449;48.800;9.534;2023-11-18T02:10:36;3.90;;;3.47;;
63320;SDS011;49449;48.800;9.534;2023-11-18T02:15:52;4.03;;;3.67;;
63320;SDS011;49449;48.800;9.534;2023-11-18T02:18:24;3.92;;;3.53;;
63320;SDS011;49449;48.800;9.534;2023-11-18T02:20:53;3.53;;;3.20;;
63320;SDS011;49449;48.800;9.534;2023-11-18T02:23:25;3.45;;;3.15;;
63320;SDS011;49449;48.800;9.534;2023-11-18T02:25:55;3.70;;;3.08;;
63320;SDS011;49449;48.800;9.534;2023-11-18T02:28:23;3.90;;;3.22;;
63320;SDS011;49449;48.800;9.534;2023-11-18T02:30:51;3.50;;;3.20;;
63320;SDS011;49449;48.800;9.534;2023-11-18T02:33:25;3.50;;;3.20;;
63320;SDS011;49449;48.800;9.534;2023-11-18T02:36:02;3.92;;;2.92;;
63320;SDS011;49449;48.800;9.534;2023-11-18T02:38:47;4.30;;;2.97;;
63320;SDS011;49449;48.800;9.534;2023-11-18T02:41:19;3.05;;;2.75;;
63320;SDS011;49449;48.800;9.534;2023-11-18T02:43:49;3.17;;;2.97;;
63320;SDS011;49449;48.800;9.534;2023-11-18T02:46:17;5.35;;;3.33;;
63320;SDS011;49449;48.800;9.534;2023-11-18T02:48:47;5.10;;;4.57;;
63320;SDS011;49449;48.800;9.534;2023-11-18T02:51:15;3.53;;;3.22;;
63320;SDS011;49449;48.800;9.534;2023-11-18T02:53:43;3.33;;;3.03;;
63320;SDS011;49449;48.800;9.534;2023-11-18T02:56:11;3.35;;;3.05;;
63320;SDS011;49449;48.800;9.534;2023-11-18T02:58:40;3.58;;;3.28;;
63320;SDS011;49449;48.800;9.534;2023-11-18T03:01:08;3.20;;;2.90;;
63320;SDS011;49449;48.800;9.534;2023-11-18T03:03:36;3.35;;;3.00;;
63320;SDS011;49449;48.800;9.534;2023-11-18T03:06:04;4.30;;;2.58;;
63320;SDS011;49449;48.800;9.534;2023-11-18T03:08:32;3.50;;;3.20;;
63320;SDS011;49449;48.800;9.534;2023-11-18T03:11:00;3.47;;;3.17;;
63320;SDS011;49449;48.800;9.534;2023-11-18T03:13:31;3.60;;;3.33;;
63320;SDS011;49449;48.800;9.534;2023-11-18T03:16:00;3.70;;;3.40;;
63320;SDS011;49449;48.800;9.534;2023-11-18T03:18:29;3.28;;;2.92;;
63320;SDS011;49449;48.800;9.534;2023-11-18T03:20:58;4.63;;;3.25;;
63320;SDS011;49449;48.800;9.534;2023-11-18T03:23:26;3.70;;;3.17;;
63320;SDS011;49449;48.800;9.534;2023-11-18T03:25:55;2.72;;;2.53;;
63320;SDS011;49449;48.800;9.534;2023-11-18T03:28:23;3.67;;;2.88;;
63320;SDS011;49449;48.800;9.534;2023-11-18T03:30:52;2.90;;;2.70;;
63320;SDS011;49449;48.800;9.534;2023-11-18T03:33:21;3.90;;;2.72;;
63320;SDS011;49449;48.800;9.534;2023-11-18T03:35:49;2.70;;;2.50;;
63320;SDS011;49449;48.800;9.534;2023-11-18T03:38:17;3.33;;;3.03;;
63320;SDS011;49449;48.800;9.534;2023-11-18T03:40:45;3.40;;;3.10;;
63320;SDS011;49449;48.800;9.534;2023-11-18T03:43:13;3.17;;;2.88;;
63320;SDS011;49449;48.800;9.534;2023-11-18T03:45:41;2.90;;;2.70;;
63320;SDS011;49449;48.800;9.534;2023-11-18T03:48:09;3.08;;;2.78;;
63320;SDS011;49449;48.800;9.534;2023-11-18T03:50:42;3.47;;;3.17;;
63320;SDS011;49449;48.800;9.534;2023-11-18T03:53:10;4.30;;;3.33;;
63320;SDS011;49449;48.800;9.534;2023-11-18T03:55:38;3.78;;;3.17;;
63320;SDS011;49449;48.800;9.534;2023-11-18T03:58:06;2.83;;;2.53;;
63320;SDS011;49449;48.800;9.534;2023-11-18T04:00:35;3.08;;;2.80;;
63320;SDS011;49449;48.800;9.534;2023-11-18T04:03:03;2.83;;;2.55;;
63320;SDS011;49449;48.800;9.534;2023-11-18T04:05:34;2.90;;;2.70;;
63320;SDS011;49449;48.800;9.534;2023-11-18T04:08:05;2.45;;;2.35;;
63320;SDS011;49449;48.800;9.534;2023-11-18T04:10:33;2.55;;;2.35;;
63320;SDS011;49449;48.800;9.534;2023-11-18T04:13:00;2.40;;;2.17;;
63320;SDS011;49449;48.800;9.534;2023-11-18T04:15:28;2.95;;;2.75;;
63320;SDS011;49449;48.800;9.534;2023-11-18T04:17:56;2.88;;;2.47;;
63320;SDS011;49449;48.800;9.534;2023-11-18T04:20:24;3.10;;;2.80;;
63320;SDS011;49449;48.800;9.534;2023-11-18T04:22:52;2.85;;;2.65;;
63320;SDS011;49449;48.800;9.534;2023-11-18T04:25:21;3.08;;;2.78;;
63320;SDS011;49449;48.800;9.534;2023-11-18T04:27:49;3.70;;;3.40;;
63320;SDS011;49449;48.800;9.534;2023-11-18T04:30:17;3.42;;;3.13;;
63320;SDS011;49449;48.800;9.534;2023-11-18T04:32:45;3.20;;;2.88;;
63320;SDS011;49449;48.800;9.534;2023-11-18T04:35:13;4.15;;;3.78;;
63320;SDS011;49449;48.800;9.534;2023-11-18T04:37:41;2.92;;;2.72;;
63320;SDS011;49449;48.800;9.534;2023-11-18T04:40:12;3.78;;;2.95;;
63320;SDS011;49449;48.800;9.534;2023-11-18T04:42:41;3.28;;;2.92;;
63320;SDS011;49449;48.800;9.534;2023-11-18T04:45:09;2.72;;;2.53;;
63320;SDS011;49449;48.800;9.534;2023-11-18T04:47:37;2.90;;;2.70;;
63320;SDS011;49449;48.800;9.534;2023-11-18T04:50:06;3.50;;;3.20;;
63320;SDS011;49449;48.800;9.534;2023-11-18T04:52:35;3.40;;;3.10;;
63320;SDS011;49449;48.800;9.534;2023-11-18T04:55:04;3.05;;;2.72;;
63320;SDS011;49449;48.800;9.534;2023-11-18T04:57:33;4.45;;;3.22;;
63320;SDS011;49449;48.800;9.534;2023-11-18T05:00:02;2.90;;;2.70;;
63320;SDS011;49449;48.800;9.534;2023-11-18T05:02:37;2.70;;;2.50;;
63320;SDS011;49449;48.800;9.534;2023-11-18T05:05:05;2.80;;;2.60;;
63320;SDS011;49449;48.800;9.534;2023-11-18T05:07:33;2.92;;;2.63;;
63320;SDS011;49449;48.800;9.534;2023-11-18T05:10:01;3.00;;;2.80;;
63320;SDS011;49449;48.800;9.534;2023-11-18T05:12:30;3.95;;;3.65;;
63320;SDS011;49449;48.800;9.534;2023-11-18T05:15:00;4.13;;;3.72;;
63320;SDS011;49449;48.800;9.534;2023-11-18T05:17:30;5.10;;;3.33;;
63320;SDS011;49449;48.800;9.534;2023-11-18T05:19:57;4.05;;;3.58;;
63320;SDS011;49449;48.800;9.534;2023-11-18T05:22:26;4.10;;;3.70;;
63320;SDS011;49449;48.800;9.534;2023-11-18T05:24:54;4.35;;;3.95;;
63320;SDS011;49449;48.800;9.534;2023-11-18T05:27:22;3.85;;;3.47;;
63320;SDS011;49449;48.800;9.534;2023-11-18T05:29:50;3.90;;;3.30;;
63320;SDS011;49449;48.800;9.534;2023-11-18T05:32:21;3.90;;;3.45;;
63320;SDS011;49449;48.800;9.534;2023-11-18T05:34:53;4.30;;;3.90;;
63320;SDS011;49449;48.800;9.534;2023-11-18T05:37:23;6.93;;;5.35;;
63320;SDS011;49449;48.800;9.534;2023-11-18T05:39:54;7.07;;;5.32;;
63320;SDS011;49449;48.800;9.534;2023-11-18T05:42:25;4.40;;;4.00;;
63320;SDS011;49449;48.800;9.534;2023-11-18T05:44:55;4.10;;;3.78;;
63320;SDS011;49449;48.800;9.534;2023-11-18T05:47:25;4.65;;;4.25;;
63320;SDS011;49449;48.800;9.534;2023-11-18T05:49:55;6.07;;;4.13;;
63320;SDS011;49449;48.800;9.534;2023-11-18T05:52:22;5.97;;;3.63;;
63320;SDS011;49449;48.800;9.534;2023-11-18T05:54:50;4.35;;;3.53;;
63320;SDS011;49449;48.800;9.534;2023-11-18T05:57:18;4.47;;;3.80;;
63320;SDS011;49449;48.800;9.534;2023-11-18T05:59:46;3.65;;;3.35;;
63320;SDS011;49449;48.800;9.534;2023-11-18T06:02:15;4.10;;;3.70;;
63320;SDS011;49449;48.800;9.534;2023-11-18T06:04:44;3.75;;;3.42;;
63320;SDS011;49449;48.800;9.534;2023-11-18T06:07:14;4.00;;;3.60;;
63320;SDS011;49449;48.800;9.534;2023-11-18T06:09:43;4.70;;;3.63;;
63320;SDS011;49449;48.800;9.534;2023-11-18T06:12:11;6.70;;;3.47;;
63320;SDS011;49449;48.800;9.534;2023-11-18T06:14:39;4.07;;;3.67;;
63320;SDS011;49449;48.800;9.534;2023-11-18T06:17:08;3.55;;;3.20;;
63320;SDS011;49449;48.800;9.534;2023-11-18T06:19:39;4.60;;;3.47;;
63320;SDS011;49449;48.800;9.534;2023-11-18T06:22:07;3.40;;;3.10;;
63320;SDS011;49449;48.800;9.534;2023-11-18T06:24:36;3.35;;;3.05;;
63320;SDS011;49449;48.800;9.534;2023-11-18T06:27:05;3.70;;;3.33;;
63320;SDS011;49449;48.800;9.534;2023-11-18T06:29:35;3.03;;;2.72;;
63320;SDS011;49449;48.800;9.534;2023-11-18T06:32:03;3.10;;;2.88;;
63320;SDS011;49449;48.800;9.534;2023-11-18T06:34:32;2.75;;;2.55;;
63320;SDS011;49449;48.800;9.534;2023-11-18T06:37:00;3.20;;;2.90;;
63320;SDS011;49449;48.800;9.534;2023-11-18T06:39:28;4.88;;;3.03;;
63320;SDS011;49449;48.800;9.534;2023-11-18T06:41:57;3.65;;;2.50;;
63320;SDS011;49449;48.800;9.534;2023-11-18T06:44:25;3.00;;;2.70;;
63320;SDS011;49449;48.800;9.534;2023-11-18T06:46:53;2.90;;;2.70;;
63320;SDS011;49449;48.800;9.534;2023-11-18T06:49:21;3.13;;;2.83;;
63320;SDS011;49449;48.800;9.534;2023-11-18T06:51:51;2.78;;;2.58;;
63320;SDS011;49449;48.800;9.534;2023-11-18T06:54:19;3.15;;;2.85;;
63320;SDS011;49449;48.800;9.534;2023-11-18T06:56:47;2.65;;;2.45;;
63320;SDS011;49449;48.800;9.534;2023-11-18T06:59:19;3.80;;;3.17;;
63320;SDS011;49449;48.800;9.534;2023-11-18T07:01:46;4.07;;;3.42;;
63320;SDS011;49449;48.800;9.534;2023-11-18T07:04:15;4.80;;;3.92;;
63320;SDS011;49449;48.800;9.534;2023-11-18T07:06:43;5.13;;;3.78;;
63320;SDS011;49449;48.800;9.534;2023-11-18T07:09:10;4.47;;;4.07;;
63320;SDS011;49449;48.800;9.534;2023-11-18T07:11:43;4.75;;;4.35;;
63320;SDS011;49449;48.800;9.534;2023-11-18T07:14:13;3.95;;;3.65;;
63320;SDS011;49449;48.800;9.534;2023-11-18T07:16:43;3.83;;;3.50;;
63320;SDS011;49449;48.800;9.534;2023-11-18T07:19:11;3.95;;;3.53;;
63320;SDS011;49449;48.800;9.534;2023-11-18T07:21:45;4.95;;;3.72;;
63320;SDS011;49449;48.800;9.534;2023-11-18T07:24:13;5.18;;;4.28;;
63320;SDS011;49449;48.800;9.534;2023-11-18T07:26:41;5.50;;;4.40;;
63320;SDS011;49449;48.800;9.534;2023-11-18T07:29:10;4.90;;;4.20;;
63320;SDS011;49449;48.800;9.534;2023-11-18T07:31:38;4.85;;;4.35;;
63320;SDS011;49449;48.800;9.534;2023-11-18T07:34:07;5.60;;;4.72;;
63320;SDS011;49449;48.800;9.534;2023-11-18T07:36:35;4.15;;;3.80;;
63320;SDS011;49449;48.800;9.534;2023-11-18T07:39:03;4.28;;;3.70;;
63320;SDS011;49449;48.800;9.534;2023-11-18T07:41:31;6.53;;;5.85;;
63320;SDS011;49449;48.800;9.534;2023-11-18T07:43:59;7.78;;;5.10;;
63320;SDS011;49449;48.800;9.534;2023-11-18T07:46:27;5.05;;;3.83;;
63320;SDS011;49449;48.800;9.534;2023-11-18T07:48:57;5.25;;;4.47;;
63320;SDS011;49449;48.800;9.534;2023-11-18T07:51:26;5.10;;;4.03;;
63320;SDS011;49449;48.800;9.534;2023-11-18T07:53:53;4.57;;;3.67;;
63320;SDS011;49449;48.800;9.534;2023-11-18T07:56:21;4.47;;;3.80;;
63320;SDS011;49449;48.800;9.534;2023-11-18T07:58:49;6.15;;;4.93;;
63320;SDS011;49449;48.800;9.534;2023-11-18T08:01:18;8.25;;;6.00;;
63320;SDS011;49449;48.800;9.534;2023-11-18T08:03:47;8.70;;;6.63;;
63320;SDS011;49449;48.800;9.534;2023-11-18T08:06:17;8.20;;;7.07;;
63320;SDS011;49449;48.800;9.534;2023-11-18T08:08:46;6.30;;;5.65;;
63320;SDS011;49449;48.800;9.534;2023-11-18T08:11:14;5.90;;;5.30;;
63320;SDS011;49449;48.800;9.534;2023-11-18T08:13:43;6.97;;;6.20;;
63320;SDS011;49449;48.800;9.534;2023-11-18T08:16:11;5.88;;;5.13;;
63320;SDS011;49449;48.800;9.534;2023-11-18T08:18:40;6.65;;;6.05;;
63320;SDS011;49449;48.800;9.534;2023-11-18T08:21:08;5.30;;;4.32;;
63320;SDS011;49449;48.800;9.534;2023-11-18T08:23:36;5.10;;;4.10;;
63320;SDS011;49449;48.800;9.534;2023-11-18T08:26:05;4.10;;;3.70;;
63320;SDS011;49449;48.800;9.534;2023-11-18T08:28:33;4.10;;;3.67;;
63320;SDS011;49449;48.800;9.534;2023-11-18T08:31:01;3.97;;;3.60;;
63320;SDS011;49449;48.800;9.534;2023-11-18T08:33:29;4.68;;;4.28;;
63320;SDS011;49449;48.800;9.534;2023-11-18T08:35:57;4.07;;;3.00;;
63320;SDS011;49449;48.800;9.534;2023-11-18T08:38:25;3.60;;;2.83;;
63320;SDS011;49449;48.800;9.534;2023-11-18T08:40:54;2.78;;;2.58;;
63320;SDS011;49449;48.800;9.534;2023-11-18T08:43:23;2.67;;;2.47;;
63320;SDS011;49449;48.800;9.534;2023-11-18T08:45:51;2.92;;;2.70;;
63320;SDS011;49449;48.800;9.534;2023-11-18T08:48:19;3.47;;;3.17;;
63320;SDS011;49449;48.800;9.534;2023-11-18T08:50:49;2.72;;;2.40;;
63320;SDS011;49449;48.800;9.534;2023-11-18T08:53:17;3.03;;;2.60;;
63320;SDS011;49449;48.800;9.534;2023-11-18T08:55:52;2.97;;;2.78;;
63320;SDS011;49449;48.800;9.534;2023-11-18T08:58:20;2.80;;;2.60;;
63320;SDS011;49449;48.800;9.534;2023-11-18T09:00:50;3.47;;;2.47;;
63320;SDS011;49449;48.800;9.534;2023-11-18T09:03:20;2.50;;;2.30;;
63320;SDS011;49449;48.800;9.534;2023-11-18T09:05:54;3.42;;;2.65;;
63320;SDS011;49449;48.800;9.534;2023-11-18T09:08:25;2.80;;;2.60;;
63320;SDS011;49449;48.800;9.534;2023-11-18T09:10:56;3.67;;;3.38;;
63320;SDS011;49449;48.800;9.534;2023-11-18T09:13:24;2.53;;;2.33;;
63320;SDS011;49449;48.800;9.534;2023-11-18T09:15:56;2.28;;;2.08;;
63320;SDS011;49449;48.800;9.534;2023-11-18T09:18:26;3.00;;;2.80;;
63320;SDS011;49449;48.800;9.534;2023-11-18T09:20:54;5.03;;;4.40;;
63320;SDS011;49449;48.800;9.534;2023-11-18T09:23:25;5.85;;;5.20;;
63320;SDS011;49449;48.800;9.534;2023-11-18T09:25:53;4.00;;;3.70;;
63320;SDS011;49449;48.800;9.534;2023-11-18T09:28:22;4.05;;;3.65;;
63320;SDS011;49449;48.800;9.534;2023-11-18T09:30:51;3.90;;;3.10;;
63320;SDS011;49449;48.800;9.534;2023-11-18T09:33:25;3.35;;;3.05;;
63320;SDS011;49449;48.800;9.534;2023-11-18T09:35:55;3.50;;;3.03;;
63320;SDS011;49449;48.800;9.534;2023-11-18T09:38:26;5.65;;;5.05;;
63320;SDS011;49449;48.800;9.534;2023-11-18T09:40:57;4.10;;;3.70;;
63320;SDS011;49449;48.800;9.534;2023-11-18T09:43:28;3.40;;;3.00;;
63320;SDS011;49449;48.800;9.534;2023-11-18T09:46:02;3.38;;;2.90;;
63320;SDS011;49449;48.800;9.534;2023-11-18T09:48:36;2.70;;;2.50;;
63320;SDS011;49449;48.800;9.534;2023-11-18T09:51:07;2.63;;;2.30;;
63320;SDS011;49449;48.800;9.534;2023-11-18T09:53:37;3.42;;;2.58;;
63320;SDS011;49449;48.800;9.534;2023-11-18T09:56:07;3.45;;;2.83;;
63320;SDS011;49449;48.800;9.534;2023-11-18T09:58:45;3.97;;;3.10;;
63320;SDS011;49449;48.800;9.534;2023-11-18T10:01:23;4.07;;;2.75;;
63320;SDS011;49449;48.800;9.534;2023-11-18T10:03:55;2.72;;;2.53;;
63320;SDS011;49449;48.800;9.534;2023-11-18T10:06:24;3.05;;;2.85;;
63320;SDS011;49449;48.800;9.534;2023-11-18T10:08:57;2.08;;;1.98;;
63320;SDS011;49449;48.800;9.534;2023-11-18T10:11:41;3.72;;;2.65;;
63320;SDS011;49449;48.800;9.534;2023-11-18T10:14:13;2.50;;;2.30;;
63320;SDS011;49449;48.800;9.534;2023-11-18T10:16:43;2.90;;;2.70;;
63320;SDS011;49449;48.800;9.534;2023-11-18T10:19:14;2.67;;;2.47;;
63320;SDS011;49449;48.800;9.534;2023-11-18T10:21:44;3.20;;;3.00;;
63320;SDS011;49449;48.800;9.534;2023-11-18T10:24:15;2.95;;;2.42;;
63320;SDS011;49449;48.800;9.534;2023-11-18T10:26:46;2.13;;;2.03;;
63320;SDS011;49449;48.800;9.534;2023-11-18T10:29:23;5.07;;;2.20;;
63320;SDS011;49449;48.800;9.534;2023-11-18T10:32:02;2.42;;;2.22;;
63320;SDS011;49449;48.800;9.534;2023-11-18T10:34:35;2.45;;;2.25;;
63320;SDS011;49449;48.800;9.534;2023-11-18T10:37:03;2.67;;;2.42;;
63320;SDS011;49449;48.800;9.534;2023-11-18T10:39:32;3.00;;;2.10;;
63320;SDS011;49449;48.800;9.534;2023-11-18T10:42:02;3.58;;;2.50;;
63320;SDS011;49449;48.800;9.534;2023-11-18T10:44:30;2.85;;;2.60;;
63320;SDS011;49449;48.800;9.534;2023-11-18T10:46:58;2.92;;;2.72;;
63320;SDS011;49449;48.800;9.534;2023-11-18T10:49:26;2.80;;;2.50;;
63320;SDS011;49449;48.800;9.534;2023-11-18T10:51:56;2.42;;;2.33;;
63320;SDS011;49449;48.800;9.534;2023-11-18T10:54:24;2.72;;;2.53;;
63320;SDS011;49449;48.800;9.534;2023-11-18T10:56:52;2.63;;;2.43;;
63320;SDS011;49449;48.800;9.534;2023-11-18T10:59:23;3.00;;;2.55;;
63320;SDS011;49449;48.800;9.534;2023-11-18T11:01:52;2.20;;;2.00;;
63320;SDS011;49449;48.800;9.534;2023-11-18T11:04:24;1.88;;;1.77;;
63320;SDS011;49449;48.800;9.534;2023-11-18T11:06:52;1.80;;;1.70;;
63320;SDS011;49449;48.800;9.534;2023-11-18T11:09:21;1.80;;;1.70;;
63320;SDS011;49449;48.800;9.534;2023-11-18T11:11:56;2.10;;;1.80;;
63320;SDS011;49449;48.800;9.534;2023-11-18T11:14:31;2.08;;;1.88;;
63320;SDS011;49449;48.800;9.534;2023-11-18T11:17:05;1.85;;;1.75;;
63320;SDS011;49449;48.800;9.534;2023-11-18T11:19:39;3.78;;;2.50;;
63320;SDS011;49449;48.800;9.534;2023-11-18T11:22:15;3.05;;;2.78;;
63320;SDS011;49449;48.800;9.534;2023-11-18T11:24:52;2.92;;;2.22;;
63320;SDS011;49449;48.800;9.534;2023-11-18T11:27:28;2.58;;;2.20;;
63320;SDS011;49449;48.800;9.534;2023-11-18T11:30:08;2.30;;;1.95;;
63320;SDS011;49449;48.800;9.534;2023-11-18T11:32:45;2.03;;;1.83;;
63320;SDS011;49449;48.800;9.534;2023-11-18T11:35:19;2.00;;;1.80;;
63320;SDS011;49449;48.800;9.534;2023-11-18T11:37:52;1.73;;;1.63;;
63320;SDS011;49449;48.800;9.534;2023-11-18T11:40:30;3.78;;;1.80;;
63320;SDS011;49449;48.800;9.534;2023-11-18T11:42:58;2.25;;;1.63;;
63320;SDS011;49449;48.800;9.534;2023-11-18T11:45:31;1.90;;;1.80;;
63320;SDS011;49449;48.800;9.534;2023-11-18T11:48:01;2.50;;;2.30;;
63320;SDS011;49449;48.800;9.534;2023-11-18T11:50:53;1.90;;;1.38;;
63320;SDS011;49449;48.800;9.534;2023-11-18T11:53:30;2.28;;;1.33;;
63320;SDS011;49449;48.800;9.534;2023-11-18T11:56:07;1.25;;;1.15;;
63320;SDS011;49449;48.800;9.534;2023-11-18T11:58:41;2.10;;;1.27;;
63320;SDS011;49449;48.800;9.534;2023-11-18T12:01:15;1.95;;;1.85;;
63320;SDS011;49449;48.800;9.534;2023-11-18T12:03:46;1.58;;;1.23;;
63320;SDS011;49449;48.800;9.534;2023-11-18T12:06:18;1.73;;;1.63;;
63320;SDS011;49449;48.800;9.534;2023-11-18T12:08:47;1.30;;;1.20;;
63320;SDS011;49449;48.800;9.534;2023-11-18T12:11:19;1.48;;;1.38;;
63320;SDS011;49449;48.800;9.534;2023-11-18T12:14:01;1.50;;;1.40;;
63320;SDS011;49449;48.800;9.534;2023-11-18T12:19:31;3.33;;;1.52;;
63320;SDS011;49449;48.800;9.534;2023-11-18T12:22:03;2.40;;;1.90;;
63320;SDS011;49449;48.800;9.534;2023-11-18T12:24:39;2.40;;;2.22;;
63320;SDS011;49449;48.800;9.534;2023-11-18T12:27:09;2.20;;;2.00;;
63320;SDS011;49449;48.800;9.534;2023-11-18T12:29:41;3.88;;;2.40;;
63320;SDS011;49449;48.800;9.534;2023-11-18T12:32:10;1.70;;;1.60;;
63320;SDS011;49449;48.800;9.534;2023-11-18T12:34:49;2.55;;;2.33;;
63320;SDS011;49449;48.800;9.534;2023-11-18T12:37:28;2.00;;;1.80;;
63320;SDS011;49449;48.800;9.534;2023-11-18T12:40:27;2.65;;;2.38;;
63320;SDS011;49449;48.800;9.534;2023-11-18T12:43:10;2.25;;;1.70;;
63320;SDS011;49449;48.800;9.534;2023-11-18T12:45:50;2.13;;;1.42;;
63320;SDS011;49449;48.800;9.534;2023-11-18T12:48:57;2.33;;;1.60;;
63320;SDS011;49449;48.800;9.534;2023-11-18T12:51:27;2.22;;;2.03;;
63320;SDS011;49449;48.800;9.534;2023-11-18T12:53:57;2.13;;;1.90;;
63320;SDS011;49449;48.800;9.534;2023-11-18T12:56:27;2.17;;;2.08;;
63320;SDS011;49449;48.800;9.534;2023-11-18T12:58:56;2.33;;;1.70;;
63320;SDS011;49449;48.800;9.534;2023-11-18T13:01:24;1.70;;;1.38;;
63320;SDS011;49449;48.800;9.534;2023-11-18T13:03:53;1.75;;;1.60;;
63320;SDS011;49449;48.800;9.534;2023-11-18T13:06:21;2.50;;;2.30;;
63320;SDS011;49449;48.800;9.534;2023-11-18T13:08:54;2.75;;;1.85;;
63320;SDS011;49449;48.800;9.534;2023-11-18T13:11:24;2.22;;;1.75;;
63320;SDS011;49449;48.800;9.534;2023-11-18T13:13:54;1.90;;;1.80;;
63320;SDS011;49449;48.800;9.534;2023-11-18T13:16:22;3.22;;;2.30;;
63320;SDS011;49449;48.800;9.534;2023-11-18T13:18:54;3.25;;;1.95;;
63320;SDS011;49449;48.800;9.534;2023-11-18T13:21:22;2.38;;;1.77;;
63320;SDS011;49449;48.800;9.534;2023-11-18T13:23:56;2.53;;;2.30;;
63320;SDS011;49449;48.800;9.534;2023-11-18T13:26:24;1.90;;;1.80;;
63320;SDS011;49449;48.800;9.534;2023-11-18T13:28:52;3.10;;;2.80;;
63320;SDS011;49449;48.800;9.534;2023-11-18T13:31:22;4.50;;;2.38;;
63320;SDS011;49449;48.800;9.534;2023-11-18T13:33:50;3.50;;;2.08;;
63320;SDS011;49449;48.800;9.534;2023-11-18T13:36:19;2.53;;;2.30;;
63320;SDS011;49449;48.800;9.534;2023-11-18T13:38:47;3.92;;;2.60;;
63320;SDS011;49449;48.800;9.534;2023-11-18T13:44:07;4.45;;;1.92;;
63320;SDS011;49449;48.800;9.534;2023-11-18T13:46:38;2.65;;;2.22;;
63320;SDS011;49449;48.800;9.534;2023-11-18T13:49:07;2.47;;;2.28;;
63320;SDS011;49449;48.800;9.534;2023-11-18T13:51:35;4.25;;;2.40;;
63320;SDS011;49449;48.800;9.534;2023-11-18T13:54:03;3.88;;;2.05;;
63320;SDS011;49449;48.800;9.534;2023-11-18T13:56:33;2.72;;;2.33;;
63320;SDS011;49449;48.800;9.534;2023-11-18T13:59:04;4.90;;;2.38;;
63320;SDS011;49449;48.800;9.534;2023-11-18T14:01:32;2.83;;;2.45;;
63320;SDS011;49449;48.800;9.534;2023-11-18T14:04:01;2.63;;;2.42;;
63320;SDS011;49449;48.800;9.534;2023-11-18T14:06:30;3.35;;;2.58;;
63320;SDS011;49449;48.800;9.534;2023-11-18T14:08:58;3.03;;;2.72;;
63320;SDS011;49449;48.800;9.534;2023-11-18T14:11:26;2.70;;;2.28;;
63320;SDS011;49449;48.800;9.534;2023-11-18T14:13:54;2.63;;;2.42;;
63320;SDS011;49449;48.800;9.534;2023-11-18T14:16:21;4.00;;;2.63;;
63320;SDS011;49449;48.800;9.534;2023-11-18T14:18:50;3.08;;;2.78;;
63320;SDS011;49449;48.800;9.534;2023-11-18T14:21:19;4.45;;;2.50;;
63320;SDS011;49449;48.800;9.534;2023-11-18T14:23:47;3.85;;;2.20;;
63320;SDS011;49449;48.800;9.534;2023-11-18T14:26:15;3.30;;;2.10;;
63320;SDS011;49449;48.800;9.534;2023-11-18T14:28:43;2.85;;;2.45;;
63320;SDS011;49449;48.800;9.534;2023-11-18T14:31:11;2.63;;;2.22;;
63320;SDS011;49449;48.800;9.534;2023-11-18T14:33:39;1.80;;;1.70;;
63320;SDS011;49449;48.800;9.534;2023-11-18T14:36:08;1.55;;;1.45;;
63320;SDS011;49449;48.800;9.534;2023-11-18T14:38:38;1.80;;;1.70;;
63320;SDS011;49449;48.800;9.534;2023-11-18T14:41:06;2.97;;;2.53;;
63320;SDS011;49449;48.800;9.534;2023-11-18T14:43:34;1.65;;;1.45;;
63320;SDS011;49449;48.800;9.534;2023-11-18T14:46:02;1.65;;;1.52;;
63320;SDS011;49449;48.800;9.534;2023-11-18T14:48:31;2.80;;;2.10;;
63320;SDS011;49449;48.800;9.534;2023-11-18T14:50:59;2.72;;;2.40;;
63320;SDS011;49449;48.800;9.534;2023-11-18T14:53:27;3.35;;;2.15;;
63320;SDS011;49449;48.800;9.534;2023-11-18T14:55:56;3.40;;;2.17;;
63320;SDS011;49449;48.800;9.534;2023-11-18T14:58:24;2.33;;;2.08;;
63320;SDS011;49449;48.800;9.534;2023-11-18T15:00:52;2.58;;;2.38;;
63320;SDS011;49449;48.800;9.534;2023-11-18T15:03:23;2.63;;;1.85;;
63320;SDS011;49449;48.800;9.534;2023-11-18T15:05:51;1.98;;;1.75;;
63320;SDS011;49449;48.800;9.534;2023-11-18T15:08:19;2.17;;;2.08;;
63320;SDS011;49449;48.800;9.534;2023-11-18T15:10:47;1.77;;;1.67;;
63320;SDS011;49449;48.800;9.534;2023-11-18T15:13:16;2.80;;;2.53;;
63320;SDS011;49449;48.800;9.534;2023-11-18T15:15:44;3.03;;;2.63;;